»·PEaware :: UAL856 KLAX-KIAD

UAL856 :: KLAX-KIAD

FLIGHT INFORMATION

Flight Status: Arrived
Operator:
United Airlines
More flights by this operator :: More flights under this callsign
Pilot: Jac C. (16067)
Aircraft: BOEING 737-900
(B739)
More flights by this aircraft type
Origin: KLAX Los Angeles Intl
United States
Destination: KIAD Washington Dulles Intl
United States
More flights between these airports :: More routes between these airports
Route: OSHNN8 BEALE J146 DVC BOWEE AGENT VHP MGW GIBBZ2
File this flight plan on PilotEdge
Remarks: PBN / A1B1C1D1S1S2 DOF / 180826 REG / N66841 EET / KZDV0055 KZKC0204 KZID0306 KZOB0345 KZDC0359 OPR / UAL PER / D RMK / TCAS SIMBRIEF
Altitude:
(Current/Filed)
33,000ft
Speed:
(Current/Filed)
471kts
Departed: 26-Aug-18 08:10 AM
Arrived: 26-Aug-18 12:46 PM
Distance/Time
Traveled:
1982nm/4:36
Distance/Time
To Go:
Arrived

Flight Plot

Page will automatically refresh every two minutes.

Flight plan parsing failed; only flown route is shown


Map Options




Map Legend


Flown Route
Filed Route
Departure Airport
Arrival Airport
Navaid (VOR, NDB)
Fix

Horizontal Profiles

Position Reports

Time Latitude Longitude Heading Altitude Ground
Speed
26-Aug-18 07:24 33.941652 -118.400254 82 113ft 0kts
26-Aug-18 07:25 33.941652 -118.400254 82 113ft 0kts
26-Aug-18 07:26 33.941652 -118.400254 82 112ft 0kts
26-Aug-18 07:27 33.941652 -118.400254 82 112ft 0kts
26-Aug-18 07:28 33.941652 -118.400254 82 112ft 0kts
26-Aug-18 07:29 33.941652 -118.400254 82 112ft 0kts
26-Aug-18 07:30 33.941652 -118.400254 82 112ft 0kts
26-Aug-18 07:31 33.941652 -118.400254 82 112ft 0kts
26-Aug-18 07:32 33.941652 -118.400254 82 112ft 0kts
26-Aug-18 07:33 33.941652 -118.400254 82 112ft 0kts
26-Aug-18 07:34 33.941652 -118.400254 82 112ft 0kts
26-Aug-18 07:35 33.941652 -118.400254 82 112ft 0kts
26-Aug-18 07:36 33.941652 -118.400254 82 112ft 0kts
26-Aug-18 07:37 33.941652 -118.400254 82 112ft 0kts
26-Aug-18 07:38 33.941652 -118.400254 82 112ft 0kts
26-Aug-18 07:39 33.941652 -118.400254 82 112ft 0kts
26-Aug-18 07:40 33.941652 -118.400254 82 112ft 0kts
26-Aug-18 07:41 33.941652 -118.400254 82 112ft 0kts
26-Aug-18 07:42 33.941652 -118.400254 82 112ft 0kts
26-Aug-18 07:43 33.941652 -118.400254 82 112ft 0kts
26-Aug-18 07:44 33.941652 -118.400254 82 112ft 0kts
26-Aug-18 07:45 33.941652 -118.400254 82 112ft 0kts
26-Aug-18 07:46 33.941652 -118.400254 82 112ft 0kts
26-Aug-18 07:47 33.941652 -118.400254 82 112ft 0kts
26-Aug-18 07:48 33.941652 -118.400254 82 112ft 0kts
26-Aug-18 07:49 33.941652 -118.400254 82 112ft 0kts
26-Aug-18 07:50 33.941652 -118.400254 82 112ft 0kts
26-Aug-18 07:51 33.941652 -118.400254 82 112ft 0kts
26-Aug-18 07:52 33.941652 -118.400254 82 112ft 0kts
26-Aug-18 07:53 33.941652 -118.400254 82 112ft 0kts
26-Aug-18 07:54 33.941652 -118.400254 82 112ft 0kts
26-Aug-18 07:55 33.941652 -118.400254 82 112ft 0kts
26-Aug-18 07:56 33.941652 -118.400254 82 112ft 0kts
26-Aug-18 07:57 33.941652 -118.400254 82 112ft 0kts
26-Aug-18 07:58 33.941652 -118.400254 82 112ft 0kts
26-Aug-18 07:59 33.941652 -118.400255 82 113ft 0kts
26-Aug-18 08:00 33.941652 -118.400255 82 113ft 0kts
26-Aug-18 08:01 33.941652 -118.400255 82 113ft 0kts
26-Aug-18 08:02 33.941615 -118.400595 82 113ft 2kts
26-Aug-18 08:03 33.941961 -118.400900 170 113ft 0kts
26-Aug-18 08:04 33.941960 -118.400900 170 112ft 0kts
26-Aug-18 08:05 33.941960 -118.400900 170 112ft 0kts
26-Aug-18 08:06 33.940446 -118.400680 173 112ft 10kts
26-Aug-18 08:07 33.939059 -118.397248 82 112ft 21kts
26-Aug-18 08:08 33.939770 -118.390169 83 112ft 19kts
26-Aug-18 08:09 33.940404 -118.384088 84 112ft 17kts
26-Aug-18 08:10 33.939729 -118.381233 262 112ft 24kts
26-Aug-18 08:11 33.935199 -118.425358 263 874ft 188kts
26-Aug-18 08:12 33.916901 -118.486304 231 2682ft 216kts
26-Aug-18 08:13 33.874940 -118.545718 230 4714ft 240kts
26-Aug-18 08:14 33.810575 -118.558716 161 6332ft 277kts
26-Aug-18 08:15 33.734617 -118.533467 167 8506ft 290kts
26-Aug-18 08:16 33.680553 -118.467170 109 10392ft 305kts
26-Aug-18 08:17 33.650671 -118.366342 109 11952ft 333kts
26-Aug-18 08:18 33.642185 -118.256720 88 13861ft 344kts
26-Aug-18 08:19 33.675878 -118.154502 37 15688ft 345kts
26-Aug-18 08:20 33.752877 -118.083896 34 16981ft 357kts
26-Aug-18 08:21 33.831594 -118.013017 34 17280ft 360kts
26-Aug-18 08:22 33.911649 -117.940795 33 18640ft 366kts
26-Aug-18 08:23 33.992821 -117.866561 33 19832ft 374kts
26-Aug-18 08:24 34.076110 -117.790181 33 20948ft 382kts
26-Aug-18 08:25 34.144267 -117.699994 48 21893ft 394kts
26-Aug-18 08:26 34.212457 -117.597309 48 22831ft 402kts
26-Aug-18 08:27 34.282802 -117.491866 48 23725ft 408kts
26-Aug-18 08:28 34.354468 -117.384400 48 24567ft 415kts
26-Aug-18 08:29 34.425377 -117.277933 48 25288ft 421kts
26-Aug-18 08:30 34.498866 -117.167358 48 25970ft 427kts
26-Aug-18 08:31 34.573040 -117.056804 48 26527ft 434kts
26-Aug-18 08:32 34.650601 -116.943801 49 27060ft 442kts
26-Aug-18 08:33 34.729587 -116.828291 50 27654ft 446kts
26-Aug-18 08:34 34.808870 -116.711881 50 28216ft 451kts
26-Aug-18 08:35 34.890529 -116.595516 47 28748ft 455kts
26-Aug-18 08:36 34.975932 -116.481258 47 29321ft 457kts
26-Aug-18 08:37 35.061203 -116.366831 47 29961ft 457kts
26-Aug-18 08:38 35.143613 -116.255986 47 30474ft 456kts
26-Aug-18 08:39 35.227595 -116.142670 47 30928ft 456kts
26-Aug-18 08:40 35.312248 -116.028026 47 31363ft 455kts
26-Aug-18 08:41 35.397068 -115.912732 47 31944ft 455kts
26-Aug-18 08:42 35.481462 -115.797599 47 32706ft 455kts
26-Aug-18 08:43 35.566025 -115.681823 47 33052ft 466kts
26-Aug-18 08:44 35.654244 -115.560609 47 33048ft 487kts
26-Aug-18 08:45 35.745709 -115.434442 47 33040ft 498kts
26-Aug-18 08:46 35.834926 -115.310913 48 33036ft 497kts
26-Aug-18 08:47 35.925816 -115.184742 48 33037ft 497kts
26-Aug-18 08:48 36.017322 -115.057213 48 33029ft 502kts
26-Aug-18 08:49 36.108068 -114.930207 48 33010ft 502kts
26-Aug-18 08:50 36.190653 -114.793554 68 33038ft 500kts
26-Aug-18 08:51 36.240630 -114.633199 71 33014ft 500kts
26-Aug-18 08:52 36.288952 -114.472358 71 33027ft 500kts
26-Aug-18 08:53 36.336360 -114.312723 72 33021ft 500kts
26-Aug-18 08:54 36.382449 -114.157746 71 33041ft 500kts
26-Aug-18 08:55 36.430571 -113.996291 71 33085ft 500kts
26-Aug-18 08:56 36.478704 -113.835395 71 33092ft 499kts
26-Aug-18 08:57 36.527097 -113.674248 71 33094ft 499kts
26-Aug-18 08:58 36.575683 -113.513062 71 33095ft 500kts
26-Aug-18 08:59 36.624363 -113.352115 71 33197ft 500kts
26-Aug-18 09:00 36.667595 -113.202895 72 33255ft 500kts
26-Aug-18 09:01 36.713583 -113.041478 72 33257ft 499kts
26-Aug-18 09:02 36.759854 -112.878960 73 33259ft 502kts
26-Aug-18 09:03 36.806337 -112.716094 73 33262ft 503kts
26-Aug-18 09:04 36.852582 -112.554579 73 33263ft 503kts
26-Aug-18 09:05 36.899073 -112.391557 74 33264ft 502kts
26-Aug-18 09:06 36.941958 -112.237392 74 33238ft 502kts
26-Aug-18 09:07 36.987146 -112.072675 74 33208ft 502kts
26-Aug-18 09:08 37.032035 -111.908079 74 33210ft 505kts
26-Aug-18 09:09 37.076802 -111.744299 74 33182ft 506kts
26-Aug-18 09:10 37.121470 -111.581518 74 33173ft 508kts
26-Aug-18 09:11 37.167416 -111.414783 73 33173ft 508kts
26-Aug-18 09:12 37.211474 -111.255720 74 33168ft 507kts
26-Aug-18 09:13 37.255996 -111.088476 75 33167ft 507kts
26-Aug-18 09:14 37.298408 -110.919735 76 33170ft 512kts
26-Aug-18 09:15 37.340964 -110.749496 76 33172ft 512kts
26-Aug-18 09:16 37.383619 -110.579682 76 33203ft 512kts
26-Aug-18 09:17 37.426636 -110.409355 76 33328ft 513kts
26-Aug-18 09:18 37.467357 -110.249232 76 33333ft 512kts
26-Aug-18 09:19 37.510935 -110.078640 76 33345ft 512kts
26-Aug-18 09:20 37.554489 -109.908902 76 33349ft 513kts
26-Aug-18 09:21 37.598414 -109.738606 75 33351ft 512kts
26-Aug-18 09:22 37.642449 -109.568728 75 33353ft 513kts
26-Aug-18 09:23 37.686850 -109.398304 75 33356ft 513kts
26-Aug-18 09:24 37.729932 -109.234013 75 33348ft 512kts
26-Aug-18 09:25 37.774694 -109.064015 75 33340ft 511kts
26-Aug-18 09:26 37.818059 -108.894338 80 33229ft 506kts
26-Aug-18 09:27 37.844105 -108.721494 83 33154ft 504kts
26-Aug-18 09:28 37.868525 -108.549137 83 33108ft 504kts
26-Aug-18 09:29 37.893316 -108.376213 83 33201ft 504kts
26-Aug-18 09:30 37.916852 -108.213918 83 33464ft 504kts
26-Aug-18 09:31 37.941824 -108.043026 83 33470ft 504kts
26-Aug-18 09:32 37.966380 -107.876550 83 33472ft 504kts
26-Aug-18 09:33 37.992162 -107.703437 83 33474ft 504kts
26-Aug-18 09:34 38.018315 -107.529515 83 33477ft 504kts
26-Aug-18 09:35 38.044715 -107.355616 82 33445ft 504kts
26-Aug-18 09:36 38.070763 -107.185984 83 33402ft 503kts
26-Aug-18 09:37 38.097664 -107.012044 82 33400ft 504kts
26-Aug-18 09:38 38.122847 -106.850647 82 33391ft 501kts
26-Aug-18 09:39 38.150031 -106.678040 81 33392ft 500kts
26-Aug-18 09:40 38.177487 -106.505237 81 33389ft 501kts
26-Aug-18 09:41 38.204863 -106.334467 81 33362ft 501kts
26-Aug-18 09:42 38.232761 -106.162317 81 33353ft 501kts
26-Aug-18 09:43 38.260931 -105.989672 81 33354ft 501kts
26-Aug-18 09:44 38.289372 -105.816885 81 33356ft 501kts
26-Aug-18 09:45 38.318164 -105.643465 80 33358ft 501kts
26-Aug-18 09:46 38.347194 -105.470110 80 33254ft 502kts
26-Aug-18 09:47 38.376201 -105.298499 81 33115ft 500kts
26-Aug-18 09:48 38.405578 -105.126261 80 33116ft 502kts
26-Aug-18 09:49 38.435214 -104.953652 80 33127ft 501kts
26-Aug-18 09:50 38.465109 -104.781089 79 33114ft 498kts
26-Aug-18 09:51 38.495045 -104.609624 79 33094ft 499kts
26-Aug-18 09:52 38.525233 -104.438099 79 33066ft 499kts
26-Aug-18 09:53 38.555628 -104.266981 79 33044ft 498kts
26-Aug-18 09:54 38.586460 -104.094749 79 33065ft 499kts
26-Aug-18 09:55 38.617541 -103.922305 79 33061ft 499kts
26-Aug-18 09:56 38.648900 -103.749634 78 33055ft 499kts
26-Aug-18 09:57 38.680513 -103.576867 78 33062ft 499kts
26-Aug-18 09:58 38.712317 -103.404344 78 33074ft 499kts
26-Aug-18 09:59 38.744000 -103.234012 78 33069ft 498kts
26-Aug-18 10:00 38.775775 -103.064268 78 33027ft 498kts
26-Aug-18 10:01 38.808108 -102.892586 78 32980ft 496kts
26-Aug-18 10:02 38.839939 -102.721082 81 32983ft 496kts
26-Aug-18 10:03 38.854521 -102.546547 87 32994ft 494kts
26-Aug-18 10:04 38.866307 -102.371400 87 33000ft 494kts
26-Aug-18 10:05 38.878213 -102.199630 87 32998ft 493kts
26-Aug-18 10:06 38.890556 -102.024687 87 32999ft 494kts
26-Aug-18 10:07 38.901050 -101.878785 87 32986ft 495kts
26-Aug-18 10:08 38.916076 -101.674093 86 32966ft 495kts
26-Aug-18 10:09 38.929289 -101.497973 86 32967ft 496kts
26-Aug-18 10:10 38.940507 -101.351120 86 32974ft 497kts
26-Aug-18 10:11 38.956468 -101.146659 86 32971ft 497kts
26-Aug-18 10:12 38.968107 -101.000010 86 32973ft 498kts
26-Aug-18 10:13 38.984739 -100.794353 86 32974ft 495kts
26-Aug-18 10:14 38.996836 -100.647397 86 32976ft 496kts
26-Aug-18 10:15 39.011602 -100.471023 85 32972ft 497kts
26-Aug-18 10:16 39.029105 -100.266266 86 32953ft 497kts
26-Aug-18 10:17 39.041853 -100.119507 86 32954ft 499kts
26-Aug-18 10:18 39.057487 -99.942208 85 32955ft 499kts
26-Aug-18 10:19 39.073364 -99.765146 85 32962ft 499kts
26-Aug-18 10:20 39.089502 -99.588123 85 32977ft 499kts
26-Aug-18 10:21 39.105715 -99.413134 85 32977ft 499kts
26-Aug-18 10:22 39.122298 -99.237405 85 32974ft 498kts
26-Aug-18 10:23 39.139214 -99.060526 85 32975ft 498kts
26-Aug-18 10:24 39.156328 -98.884304 85 32969ft 494kts
26-Aug-18 10:25 39.173591 -98.709189 84 32970ft 494kts
26-Aug-18 10:26 39.191093 -98.534288 84 32971ft 494kts
26-Aug-18 10:27 39.208920 -98.358702 84 32974ft 494kts
26-Aug-18 10:28 39.226342 -98.189973 84 32981ft 493kts
26-Aug-18 10:29 39.244629 -98.014877 84 32986ft 494kts
26-Aug-18 10:30 39.263173 -97.839769 84 32988ft 494kts
26-Aug-18 10:31 39.282042 -97.664022 84 32989ft 494kts
26-Aug-18 10:32 39.301087 -97.489033 83 32990ft 494kts
26-Aug-18 10:33 39.320229 -97.315556 84 32987ft 494kts
26-Aug-18 10:34 39.339845 -97.140384 83 32993ft 494kts
26-Aug-18 10:35 39.359684 -96.965079 82 33012ft 494kts
26-Aug-18 10:36 39.379804 -96.789771 82 33016ft 494kts
26-Aug-18 10:37 39.400146 -96.614626 82 33016ft 494kts
26-Aug-18 10:38 39.420748 -96.439412 82 33016ft 494kts
26-Aug-18 10:39 39.441454 -96.265730 82 33009ft 493kts
26-Aug-18 10:40 39.462533 -96.091030 82 33026ft 494kts
26-Aug-18 10:41 39.483978 -95.915127 82 33043ft 495kts
26-Aug-18 10:42 39.505569 -95.740034 81 33045ft 494kts
26-Aug-18 10:43 39.527485 -95.564288 81 33045ft 494kts
26-Aug-18 10:44 39.549595 -95.388909 81 33044ft 494kts
26-Aug-18 10:45 39.571760 -95.215409 81 33041ft 494kts
26-Aug-18 10:46 39.594348 -95.040249 81 33043ft 494kts
26-Aug-18 10:47 39.615377 -94.865253 87 33050ft 488kts
26-Aug-18 10:48 39.615016 -94.690178 92 33061ft 486kts
26-Aug-18 10:49 39.613121 -94.515237 91 33069ft 491kts
26-Aug-18 10:50 39.611515 -94.340089 91 33058ft 490kts
26-Aug-18 10:51 39.610182 -94.163598 91 33057ft 491kts
26-Aug-18 10:52 39.609087 -93.986484 91 33061ft 491kts
26-Aug-18 10:53 39.608265 -93.809727 91 33063ft 491kts
26-Aug-18 10:54 39.607713 -93.632760 91 33074ft 491kts
26-Aug-18 10:55 39.607430 -93.455821 90 33085ft 491kts
26-Aug-18 10:56 39.607439 -93.281022 91 33086ft 491kts
26-Aug-18 10:57 39.607701 -93.104450 91 33088ft 491kts
26-Aug-18 10:58 39.608219 -92.927781 90 33101ft 489kts
26-Aug-18 10:59 39.609007 -92.752135 90 33109ft 488kts
26-Aug-18 11:00 39.610058 -92.576393 89 33109ft 488kts
26-Aug-18 11:01 39.611378 -92.400180 89 33111ft 488kts
26-Aug-18 11:02 39.612957 -92.227975 90 33105ft 488kts
26-Aug-18 11:03 39.614796 -92.052358 89 33108ft 488kts
26-Aug-18 11:04 39.616908 -91.876158 89 33111ft 488kts
26-Aug-18 11:05 39.619279 -91.700495 89 33109ft 488kts
26-Aug-18 11:06 39.621910 -91.524943 89 33110ft 489kts
26-Aug-18 11:07 39.624812 -91.348935 89 33112ft 489kts
26-Aug-18 11:08 39.627988 -91.174396 89 33107ft 488kts
26-Aug-18 11:09 39.631392 -90.999133 88 33123ft 487kts
26-Aug-18 11:10 39.635079 -90.823460 87 33126ft 488kts
26-Aug-18 11:11 39.639029 -90.648176 87 33124ft 487kts
26-Aug-18 11:12 39.643230 -90.473125 87 33122ft 487kts
26-Aug-18 11:13 39.647277 -90.313009 88 33114ft 487kts
26-Aug-18 11:14 39.652038 -90.137500 87 33114ft 486kts
26-Aug-18 11:15 39.656998 -89.962739 87 33116ft 486kts
26-Aug-18 11:16 39.662228 -89.787083 87 33134ft 487kts
26-Aug-18 11:17 39.667695 -89.612064 87 33144ft 488kts
26-Aug-18 11:18 39.673420 -89.436803 86 33143ft 488kts
26-Aug-18 11:19 39.679360 -89.264613 87 33145ft 486kts
26-Aug-18 11:20 39.685651 -89.089116 87 33157ft 486kts
26-Aug-18 11:21 39.692156 -88.914053 86 33164ft 484kts
26-Aug-18 11:22 39.698881 -88.740248 86 33164ft 481kts
26-Aug-18 11:23 39.705824 -88.566853 85 33161ft 482kts
26-Aug-18 11:24 39.713095 -88.392843 85 33169ft 483kts
26-Aug-18 11:25 39.720311 -88.225346 86 33165ft 483kts
26-Aug-18 11:26 39.728062 -88.051536 86 33168ft 481kts
26-Aug-18 11:27 39.736000 -87.877950 85 33168ft 482kts
26-Aug-18 11:28 39.744251 -87.704395 85 33173ft 483kts
26-Aug-18 11:29 39.752722 -87.530384 85 33173ft 483kts
26-Aug-18 11:30 39.761427 -87.356731 85 33173ft 482kts
26-Aug-18 11:31 39.770241 -87.187044 85 33175ft 483kts
26-Aug-18 11:32 39.779479 -87.012663 85 33172ft 484kts
26-Aug-18 11:33 39.788948 -86.838504 84 33171ft 484kts
26-Aug-18 11:34 39.798659 -86.664266 84 33177ft 484kts
26-Aug-18 11:35 39.808586 -86.490066 84 33181ft 484kts
26-Aug-18 11:36 39.816140 -86.316078 91 33186ft 485kts
26-Aug-18 11:37 39.805843 -86.145983 94 33182ft 485kts
26-Aug-18 11:38 39.794363 -85.971346 94 33187ft 485kts
26-Aug-18 11:39 39.783173 -85.796773 93 33190ft 485kts
26-Aug-18 11:40 39.772260 -85.622442 93 33190ft 485kts
26-Aug-18 11:41 39.761575 -85.447484 93 33192ft 485kts
26-Aug-18 11:42 39.751280 -85.274323 93 33201ft 485kts
26-Aug-18 11:43 39.741424 -85.104772 92 33213ft 487kts
26-Aug-18 11:44 39.731595 -84.931272 91 33215ft 488kts
26-Aug-18 11:45 39.722090 -84.758439 90 33217ft 488kts
26-Aug-18 11:46 39.712683 -84.583042 90 33210ft 488kts
26-Aug-18 11:47 39.703534 -84.407496 90 33202ft 488kts
26-Aug-18 11:48 39.695278 -84.243915 90 33196ft 488kts
26-Aug-18 11:49 39.686884 -84.073831 90 33172ft 481kts
26-Aug-18 11:50 39.678593 -83.899650 90 33184ft 484kts
26-Aug-18 11:51 39.670555 -83.725847 89 33199ft 484kts
26-Aug-18 11:52 39.662770 -83.551969 89 33193ft 484kts
26-Aug-18 11:53 39.655238 -83.377957 89 33196ft 484kts
26-Aug-18 11:54 39.648443 -83.214786 89 33192ft 484kts
26-Aug-18 11:55 39.641401 -83.040408 89 33182ft 484kts
26-Aug-18 11:56 39.634788 -82.870850 88 33190ft 483kts
26-Aug-18 11:57 39.628332 -82.698423 88 33197ft 482kts
26-Aug-18 11:58 39.622110 -82.525615 88 33199ft 481kts
26-Aug-18 11:59 39.616195 -82.354463 87 33203ft 481kts
26-Aug-18 12:00 39.610898 -82.193666 88 33200ft 482kts
26-Aug-18 12:01 39.605548 -82.025116 88 33201ft 482kts
26-Aug-18 12:02 39.600519 -81.859472 88 33199ft 482kts
26-Aug-18 12:03 39.595573 -81.688571 87 33215ft 482kts
26-Aug-18 12:04 39.590852 -81.517038 87 33236ft 481kts
26-Aug-18 12:05 39.586389 -81.345956 88 33254ft 481kts
26-Aug-18 12:06 39.583849 -81.242925 87 33252ft 482kts
26-Aug-18 12:07 39.579782 -81.071151 87 33250ft 482kts
26-Aug-18 12:08 39.575893 -80.896319 88 33239ft 487kts
26-Aug-18 12:09 39.572268 -80.724396 88 33236ft 487kts
26-Aug-18 12:10 39.568825 -80.548973 88 33239ft 487kts
26-Aug-18 12:11 39.565653 -80.374963 87 33246ft 485kts
26-Aug-18 12:12 39.562860 -80.206233 88 33242ft 487kts
26-Aug-18 12:13 39.560165 -80.031269 88 33243ft 487kts
26-Aug-18 12:14 39.558137 -79.890354 87 33245ft 486kts
26-Aug-18 12:15 39.539817 -79.751694 101 33246ft 491kts
26-Aug-18 12:16 39.502408 -79.551968 101 29738ft 490kts
26-Aug-18 12:17 39.476756 -79.411687 101 27306ft 477kts
26-Aug-18 12:18 39.447951 -79.256099 102 25170ft 450kts
26-Aug-18 12:19 39.425647 -79.133974 101 23528ft 429kts
26-Aug-18 12:20 39.395922 -78.965290 102 21278ft 408kts
26-Aug-18 12:21 39.374689 -78.846288 102 19686ft 404kts
26-Aug-18 12:22 39.350054 -78.709831 102 17791ft 394kts
26-Aug-18 12:23 39.321444 -78.552504 102 15599ft 376kts
26-Aug-18 12:24 39.302054 -78.445077 102 14143ft 365kts
26-Aug-18 12:25 39.269960 -78.330895 124 12545ft 364kts
26-Aug-18 12:26 39.243310 -78.280209 125 11719ft 331kts
26-Aug-18 12:27 39.197411 -78.193824 126 10677ft 310kts
26-Aug-18 12:28 39.149512 -78.103523 126 9876ft 296kts
26-Aug-18 12:29 39.104241 -78.018181 127 9152ft 291kts
26-Aug-18 12:30 39.058239 -77.931771 126 7988ft 294kts
26-Aug-18 12:31 39.012408 -77.845815 126 6986ft 283kts
26-Aug-18 12:32 38.969161 -77.763581 117 6709ft 281kts
26-Aug-18 12:33 38.955483 -77.666836 92 6422ft 282kts
26-Aug-18 12:34 38.996933 -77.590292 30 6178ft 276kts
26-Aug-18 12:35 39.069007 -77.575951 357 5913ft 254kts
26-Aug-18 12:36 39.133365 -77.575915 356 5707ft 211kts
26-Aug-18 12:37 39.188136 -77.576007 356 5519ft 202kts
26-Aug-18 12:38 39.244232 -77.576111 359 5332ft 202kts
26-Aug-18 12:39 39.269541 -77.521196 118 5291ft 208kts
26-Aug-18 12:40 39.233360 -77.464559 119 5084ft 206kts
26-Aug-18 12:41 39.186474 -77.447690 194 4528ft 191kts
26-Aug-18 12:42 39.134154 -77.455631 184 3522ft 190kts
26-Aug-18 12:43 39.081439 -77.457500 182 2475ft 186kts
26-Aug-18 12:44 39.036021 -77.458246 182 1574ft 152kts
26-Aug-18 12:45 38.995121 -77.458967 182 788ft 149kts
26-Aug-18 12:46 38.955013 -77.459594 180 278ft 105kts
26-Aug-18 12:47 38.946053 -77.457246 181 289ft 21kts
26-Aug-18 12:48 38.944268 -77.454297 41 293ft 4kts
26-Aug-18 12:49 38.944971 -77.454104 9 293ft 0kts
26-Aug-18 12:50 38.956560 -77.459534 182 278ft 117kts
26-Aug-18 12:51 39.051525 -77.457991 182 1879ft 154kts
26-Aug-18 12:52 39.014742 -77.458477 181 1059ft 147kts
26-Aug-18 12:53 39.241578 -77.478306 135 5143ft 203kts
26-Aug-18 12:54 39.241578 -77.478306 135 5143ft 203kts
26-Aug-18 12:55 39.201551 -77.442709 195 4795ft 192kts
26-Aug-18 12:56 39.149573 -77.454344 186 3822ft 190kts
26-Aug-18 12:57 39.096847 -77.457163 182 2786ft 191kts
26-Aug-18 12:58 39.048597 -77.458040 182 1821ft 154kts
26-Aug-18 12:59 39.008972 -77.458531 182 968ft 147kts
26-Aug-18 13:00 38.967401 -77.459345 181 275ft 151kts
26-Aug-18 13:01 38.947988 -77.457660 151 287ft 22kts

Navigation Log

Ident Type
Flight plan parsing failed, navigation log unavailable